createdAt,value
2019-05-15T00:00:02.037Z,6.00
2019-05-15T00:01:02.023Z,5.40
2019-05-15T00:02:02.044Z,5.20
2019-05-15T00:03:01.997Z,7.10
2019-05-15T00:04:01.996Z,5.40
2019-05-15T00:05:01.980Z,6.80
2019-05-15T00:06:01.976Z,4.80
2019-05-15T00:07:01.988Z,5.20
2019-05-15T00:08:01.956Z,5.90
2019-05-15T00:09:01.947Z,4.30
2019-05-15T00:10:01.931Z,5.00
2019-05-15T00:11:01.915Z,4.30
2019-05-15T00:12:01.934Z,7.20
2019-05-15T00:13:01.900Z,4.60
2019-05-15T00:14:01.887Z,6.50
2019-05-15T00:15:01.876Z,7.00
2019-05-15T00:16:01.862Z,7.30
2019-05-15T00:17:01.888Z,4.50
2019-05-15T00:18:01.840Z,4.20
2019-05-15T00:19:01.827Z,5.50
2019-05-15T00:20:01.820Z,4.50
2019-05-15T00:21:01.809Z,4.70
2019-05-15T00:22:01.829Z,6.00
2019-05-15T00:23:01.784Z,5.20
2019-05-15T00:24:01.799Z,4.90
2019-05-15T00:25:01.762Z,3.80
2019-05-15T00:26:01.751Z,8.10
2019-05-15T00:27:01.766Z,6.10
2019-05-15T00:28:01.730Z,5.70
2019-05-15T00:29:11.568Z,7.30
2019-05-15T00:30:02.710Z,3.80
2019-05-15T00:31:01.699Z,5.00
2019-05-15T00:32:01.711Z,5.20
2019-05-15T00:33:01.685Z,5.70
2019-05-15T00:34:01.672Z,3.40
2019-05-15T00:35:01.658Z,5.50
2019-05-15T00:36:01.648Z,5.10
2019-05-15T00:37:01.665Z,5.40
2019-05-15T00:38:01.628Z,4.50
2019-05-15T00:39:01.617Z,7.10
2019-05-15T00:40:01.604Z,6.40
2019-05-15T00:41:01.598Z,3.50
2019-05-15T00:42:01.609Z,3.90
2019-05-15T00:43:01.580Z,4.40
2019-05-15T00:44:01.562Z,5.50
2019-05-15T00:45:01.555Z,6.80
2019-05-15T00:46:01.553Z,6.60
2019-05-15T00:47:01.526Z,4.70
2019-05-15T00:48:01.546Z,5.00
2019-05-15T00:49:01.509Z,5.10
2019-05-15T00:50:01.495Z,4.70
2019-05-15T00:51:01.495Z,5.60
2019-05-15T00:52:01.483Z,4.50
2019-05-15T00:53:01.490Z,5.40
2019-05-15T00:54:01.455Z,4.70
2019-05-15T00:55:01.450Z,4.70
2019-05-15T00:56:01.433Z,4.00
2019-05-15T00:57:01.448Z,5.10
2019-05-15T00:58:01.436Z,4.80
2019-05-15T00:59:01.398Z,5.60
2019-05-15T01:00:01.397Z,5.00
2019-05-15T01:01:01.376Z,6.20
2019-05-15T01:02:01.377Z,3.50
2019-05-15T01:03:01.382Z,4.10
2019-05-15T01:04:01.345Z,3.90
2019-05-15T01:05:01.337Z,3.50
2019-05-15T01:06:01.326Z,5.00
2019-05-15T01:07:01.319Z,4.00
2019-05-15T01:08:01.331Z,3.20
2019-05-15T01:09:01.292Z,5.30
2019-05-15T01:10:01.278Z,4.80
2019-05-15T01:11:01.270Z,4.60
2019-05-15T01:12:01.259Z,6.10
2019-05-15T01:13:01.279Z,4.80
2019-05-15T01:14:01.245Z,5.10
2019-05-15T01:15:01.244Z,4.50
2019-05-15T01:16:01.222Z,4.20
2019-05-15T01:17:01.207Z,3.80
2019-05-15T01:18:01.220Z,4.40
2019-05-15T01:19:01.184Z,4.50
2019-05-15T01:20:01.170Z,4.30
2019-05-15T01:21:01.171Z,4.30
2019-05-15T01:22:01.150Z,7.10
2019-05-15T01:23:01.169Z,3.80
2019-05-15T01:24:01.134Z,5.70
2019-05-15T01:25:01.125Z,4.00
2019-05-15T01:26:01.110Z,4.90
2019-05-15T01:27:01.101Z,4.10
2019-05-15T01:28:01.112Z,5.00
2019-05-15T01:29:01.076Z,4.00
2019-05-15T01:30:01.068Z,4.00
2019-05-15T01:31:01.063Z,4.80
2019-05-15T01:32:01.047Z,4.40
2019-05-15T01:33:01.070Z,5.80
2019-05-15T01:34:01.027Z,4.20
2019-05-15T01:35:01.020Z,8.50
2019-05-15T01:36:01.006Z,4.70
2019-05-15T01:37:00.999Z,5.60
2019-05-15T01:38:01.022Z,5.00
2019-05-15T01:39:00.971Z,4.00
2019-05-15T01:40:00.966Z,4.30
2019-05-15T01:41:00.956Z,4.00
2019-05-15T01:42:00.943Z,4.70
2019-05-15T01:43:00.955Z,4.60
2019-05-15T01:44:00.917Z,4.10
2019-05-15T01:45:00.913Z,7.10
2019-05-15T01:46:00.901Z,8.50
2019-05-15T01:47:00.888Z,7.80
2019-05-15T01:48:00.905Z,4.80
2019-05-15T01:49:00.867Z,5.20
2019-05-15T01:50:00.854Z,5.80
2019-05-15T01:51:00.837Z,5.60
2019-05-15T01:52:00.833Z,5.20
2019-05-15T01:53:00.850Z,4.40
2019-05-15T01:54:00.824Z,4.90
2019-05-15T01:55:00.809Z,5.70
2019-05-15T01:56:00.792Z,6.60
2019-05-15T01:57:00.791Z,5.40
2019-05-15T01:58:00.800Z,7.10
2019-05-15T01:59:00.766Z,5.70
2019-05-15T02:00:01.039Z,4.60
2019-05-15T02:01:00.739Z,4.90
2019-05-15T02:02:00.728Z,7.10
2019-05-15T02:03:00.743Z,4.70
2019-05-15T02:04:00.709Z,6.20
2019-05-15T02:05:00.705Z,5.50
2019-05-15T02:06:00.692Z,4.60
2019-05-15T02:07:00.678Z,4.60
2019-05-15T02:08:00.701Z,7.80
2019-05-15T02:09:00.660Z,5.50
2019-05-15T02:10:00.647Z,4.40
2019-05-15T02:11:00.638Z,4.20
2019-05-15T02:12:00.627Z,4.20
2019-05-15T02:13:00.648Z,3.90
2019-05-15T02:14:00.602Z,3.80
2019-05-15T02:15:00.594Z,3.30
2019-05-15T02:16:00.583Z,5.20
2019-05-15T02:17:00.570Z,5.90
2019-05-15T02:18:00.584Z,4.50
2019-05-15T02:19:00.551Z,3.90
2019-05-15T02:20:00.544Z,4.70
2019-05-15T02:21:00.536Z,4.30
2019-05-15T02:22:00.518Z,4.10
2019-05-15T02:23:00.543Z,6.20
2019-05-15T02:24:00.501Z,4.20
2019-05-15T02:25:00.508Z,5.10
2019-05-15T02:26:00.482Z,4.30
2019-05-15T02:27:00.468Z,5.30
2019-05-15T02:28:00.491Z,6.40
2019-05-15T02:29:00.445Z,4.10
2019-05-15T02:30:16.303Z,4.40
2019-05-15T02:31:01.424Z,4.70
2019-05-15T02:32:00.415Z,4.60
2019-05-15T02:33:00.431Z,4.80
2019-05-15T02:34:00.402Z,4.70
2019-05-15T02:35:00.389Z,6.40
2019-05-15T02:36:00.408Z,3.30
2019-05-15T02:37:00.584Z,3.90
2019-05-15T02:38:00.377Z,5.10
2019-05-15T02:39:00.343Z,5.60
2019-05-15T02:40:00.338Z,5.00
2019-05-15T02:41:00.320Z,3.80
2019-05-15T02:42:00.315Z,3.60
2019-05-15T02:43:00.325Z,4.40
2019-05-15T02:44:00.301Z,4.90
2019-05-15T02:45:00.276Z,4.30
2019-05-15T02:46:00.696Z,4.20
2019-05-15T02:47:00.257Z,6.30
2019-05-15T02:48:00.273Z,6.10
2019-05-15T02:49:00.245Z,4.70
2019-05-15T02:50:00.243Z,4.40
2019-05-15T02:51:00.218Z,4.50
2019-05-15T02:52:00.518Z,7.40
2019-05-15T02:53:00.730Z,5.00
2019-05-15T02:54:00.181Z,5.00
2019-05-15T02:55:00.179Z,4.10
2019-05-15T02:56:00.399Z,6.30
2019-05-15T02:57:00.155Z,4.20
2019-05-15T02:58:00.164Z,5.10
2019-05-15T02:59:00.286Z,5.60
2019-05-15T03:00:00.117Z,4.20
2019-05-15T03:01:00.110Z,5.30
2019-05-15T03:02:00.105Z,6.40
2019-05-15T03:03:00.456Z,5.70
2019-05-15T03:04:00.078Z,6.00
2019-05-15T03:05:00.069Z,8.70
2019-05-15T03:06:00.506Z,8.60
2019-05-15T03:07:00.513Z,12.10
2019-05-15T03:08:00.037Z,11.10
2019-05-15T03:09:00.047Z,16.60
2019-05-15T03:10:00.323Z,40.10
2019-05-15T03:11:00.005Z,53.30
2019-05-15T03:11:59.999Z,21.50
2019-05-15T03:13:00.263Z,34.70
2019-05-15T03:14:00.009Z,34.80
2019-05-15T03:15:00.153Z,31.70
2019-05-15T03:16:00.163Z,33.10
2019-05-15T03:16:59.988Z,25.70
2019-05-15T03:18:00.541Z,23.80
2019-05-15T03:19:00.064Z,21.80
2019-05-15T03:19:59.908Z,26.50
2019-05-15T03:21:00.493Z,38.30
2019-05-15T03:22:00.092Z,68.50
2019-05-15T03:22:59.928Z,132.90
2019-05-15T03:23:59.892Z,116.60
2019-05-15T03:24:59.861Z,112.80
2019-05-15T03:26:04.006Z,79.20
2019-05-15T03:26:59.838Z,39.70
2019-05-15T03:27:59.824Z,36.80
2019-05-15T03:28:59.846Z,27.80
2019-05-15T03:29:59.800Z,12.70
2019-05-15T03:31:18.199Z,10.50
2019-05-15T03:32:22.174Z,16.70
2019-05-15T03:33:08.780Z,9.60
2019-05-15T03:34:02.888Z,6.60
2019-05-15T03:35:04.826Z,7.00
2019-05-15T03:36:02.470Z,8.20
2019-05-15T03:37:03.617Z,5.40
2019-05-15T03:38:00.033Z,6.70
2019-05-15T03:38:59.742Z,5.00
2019-05-15T03:39:59.806Z,4.60
2019-05-15T03:40:59.861Z,6.00
2019-05-15T03:41:59.674Z,6.10
2019-05-15T03:42:59.682Z,7.50
2019-05-15T03:43:59.839Z,5.70
2019-05-15T03:44:59.853Z,7.60
2019-05-15T03:46:01.626Z,8.30
2019-05-15T03:46:59.866Z,7.20
2019-05-15T03:47:59.746Z,5.10
2019-05-15T03:49:00.530Z,4.70
2019-05-15T03:50:00.087Z,7.30
2019-05-15T03:50:59.901Z,6.20
2019-05-15T03:51:59.575Z,6.30
2019-05-15T03:52:59.565Z,6.20
2019-05-15T03:54:00.337Z,5.00
2019-05-15T03:54:59.548Z,5.10
2019-05-15T03:55:59.535Z,5.80
2019-05-15T03:56:59.523Z,4.40
2019-05-15T03:57:59.513Z,4.30
2019-05-15T03:58:59.875Z,5.50
2019-05-15T03:59:59.808Z,6.60
2019-05-15T04:01:00.157Z,4.00
2019-05-15T04:02:00.053Z,7.40
2019-05-15T04:02:59.466Z,5.40
2019-05-15T04:03:59.980Z,4.90
2019-05-15T04:05:01.630Z,5.10
2019-05-15T04:06:00.534Z,5.30
2019-05-15T04:06:59.902Z,5.90
2019-05-15T04:07:59.989Z,5.40
2019-05-15T04:08:59.421Z,5.10
2019-05-15T04:09:59.384Z,5.20
2019-05-15T04:10:59.812Z,5.20
2019-05-15T04:12:00.104Z,4.90
2019-05-15T04:13:00.160Z,4.80
2019-05-15T04:13:59.638Z,5.20
2019-05-15T04:14:59.772Z,5.00
2019-05-15T04:15:59.613Z,4.40
2019-05-15T04:16:59.740Z,6.00
2019-05-15T04:18:00.333Z,5.10
2019-05-15T04:18:59.558Z,6.40
2019-05-15T04:19:59.285Z,4.40
2019-05-15T04:21:00.128Z,4.90
2019-05-15T04:22:00.014Z,6.70
2019-05-15T04:23:00.395Z,5.30
2019-05-15T04:23:59.259Z,5.50
2019-05-15T04:24:59.489Z,6.20
2019-05-15T04:25:59.234Z,5.60
2019-05-15T04:26:59.856Z,5.30
2019-05-15T04:27:59.192Z,5.30
2019-05-15T04:29:00.179Z,5.50
2019-05-15T04:29:59.343Z,4.10
2019-05-15T04:30:59.786Z,5.90
2019-05-15T04:32:05.385Z,5.10
2019-05-15T04:33:00.150Z,4.40
2019-05-15T04:33:59.367Z,6.20
2019-05-15T04:34:59.484Z,3.90
2019-05-15T04:35:59.182Z,5.60
2019-05-15T04:36:59.104Z,4.90
2019-05-15T04:37:59.872Z,4.30
2019-05-15T04:38:59.104Z,4.40
2019-05-15T04:39:59.867Z,4.60
2019-05-15T04:40:59.323Z,5.20
2019-05-15T04:41:59.168Z,4.30
2019-05-15T04:42:59.438Z,6.20
2019-05-15T04:43:59.739Z,4.80
2019-05-15T04:44:59.662Z,4.10
2019-05-15T04:46:02.859Z,4.90
2019-05-15T04:46:59.625Z,4.60
2019-05-15T04:47:58.981Z,4.40
2019-05-15T04:48:59.693Z,3.70
2019-05-15T04:49:59.141Z,6.80
2019-05-15T04:50:59.036Z,4.40
2019-05-15T04:52:03.340Z,5.50
2019-05-15T04:52:59.412Z,4.40
2019-05-15T04:53:58.918Z,3.90
2019-05-15T04:54:59.759Z,4.10
2019-05-15T04:55:59.837Z,3.80
2019-05-15T04:56:59.550Z,3.40
2019-05-15T04:57:59.323Z,5.60
2019-05-15T04:59:00.108Z,3.70
2019-05-15T04:59:58.881Z,3.50
2019-05-15T05:00:59.885Z,3.20
2019-05-15T05:02:16.332Z,4.10
2019-05-15T05:02:59.825Z,7.00
2019-05-15T05:03:59.022Z,3.90
2019-05-15T05:04:58.963Z,6.90
2019-05-15T05:05:59.328Z,5.90
2019-05-15T05:06:58.815Z,4.30
2019-05-15T05:07:59.688Z,7.10
2019-05-15T05:08:59.684Z,4.70
2019-05-15T05:09:59.511Z,4.10
2019-05-15T05:10:59.298Z,3.90
2019-05-15T05:11:58.733Z,3.40
2019-05-15T05:12:59.179Z,4.40
2019-05-15T05:13:59.219Z,3.70
2019-05-15T05:14:58.857Z,2.80
2019-05-15T05:15:58.924Z,3.30
2019-05-15T05:16:59.297Z,4.50
2019-05-15T05:17:58.730Z,3.90
2019-05-15T05:18:59.406Z,3.80
2019-05-15T05:19:58.672Z,2.90
2019-05-15T05:20:58.630Z,3.10
2019-05-15T05:21:58.667Z,3.10
2019-05-15T05:22:58.609Z,5.20
2019-05-15T05:23:58.690Z,3.60
2019-05-15T05:24:58.634Z,3.70
2019-05-15T05:25:58.573Z,3.10
2019-05-15T05:26:58.566Z,6.10
2019-05-15T05:27:58.555Z,3.80
2019-05-15T05:29:01.384Z,4.30
2019-05-15T05:29:58.715Z,3.80
2019-05-15T05:30:58.943Z,4.80
2019-05-15T05:31:58.667Z,3.40
2019-05-15T05:32:58.506Z,2.90
2019-05-15T05:33:58.491Z,4.70
2019-05-15T05:34:58.941Z,3.50
2019-05-15T05:35:58.604Z,4.10
2019-05-15T05:36:58.921Z,5.20
2019-05-15T05:37:58.453Z,3.10
2019-05-15T05:38:58.503Z,5.30
2019-05-15T05:39:58.430Z,4.40
2019-05-15T05:40:58.774Z,4.80
2019-05-15T05:41:58.823Z,3.60
2019-05-15T05:42:59.621Z,4.20
2019-05-15T05:43:58.783Z,4.00
2019-05-15T05:44:58.377Z,3.60
2019-05-15T05:45:58.398Z,3.70
2019-05-15T05:46:58.356Z,4.80
2019-05-15T05:47:58.346Z,4.50
2019-05-15T05:48:58.422Z,4.00
2019-05-15T05:49:58.325Z,3.80
2019-05-15T05:50:58.504Z,4.60
2019-05-15T05:51:58.776Z,4.40
2019-05-15T05:52:58.290Z,2.90
2019-05-15T05:53:58.980Z,3.10
2019-05-15T05:54:58.267Z,3.60
2019-05-15T05:55:58.581Z,4.20
2019-05-15T05:56:58.681Z,3.40
2019-05-15T05:57:58.458Z,3.30
2019-05-15T05:58:58.652Z,5.00
2019-05-15T05:59:58.372Z,3.20
2019-05-15T06:00:58.694Z,7.30
2019-05-15T06:01:58.995Z,2.60
2019-05-15T06:02:59.137Z,3.30
2019-05-15T06:03:58.376Z,3.10
2019-05-15T06:04:58.335Z,3.30
2019-05-15T06:05:59.038Z,5.00
2019-05-15T06:07:07.234Z,3.50
2019-05-15T06:07:59.127Z,3.70
2019-05-15T06:08:58.465Z,2.90
2019-05-15T06:09:58.223Z,3.30
2019-05-15T06:10:58.603Z,2.30
2019-05-15T06:11:58.992Z,4.20
2019-05-15T06:12:58.775Z,5.60
2019-05-15T06:13:58.526Z,3.10
2019-05-15T06:14:58.152Z,2.60
2019-05-15T06:15:59.109Z,2.50
2019-05-15T06:16:58.901Z,4.10
2019-05-15T06:17:58.538Z,3.00
2019-05-15T06:18:58.658Z,3.20
2019-05-15T06:19:58.634Z,3.00
2019-05-15T06:20:58.746Z,4.50
2019-05-15T06:22:00.916Z,2.90
2019-05-15T06:22:58.084Z,4.60
2019-05-15T06:24:04.100Z,3.30
2019-05-15T06:24:58.947Z,2.40
2019-05-15T06:25:59.245Z,3.30
2019-05-15T06:26:58.697Z,3.80
2019-05-15T06:27:58.373Z,3.00
2019-05-15T06:28:58.584Z,2.40
2019-05-15T06:29:58.100Z,2.90
2019-05-15T06:31:00.736Z,2.80
2019-05-15T06:31:58.760Z,4.40
2019-05-15T06:33:08.323Z,2.50
2019-05-15T06:33:58.856Z,2.60
2019-05-15T06:34:57.900Z,2.00
2019-05-15T06:35:59.274Z,3.30
2019-05-15T06:36:58.894Z,2.40
2019-05-15T06:37:59.077Z,2.60
2019-05-15T06:38:59.015Z,2.90
2019-05-15T06:39:58.830Z,3.80
2019-05-15T06:40:58.364Z,2.70
2019-05-15T06:41:58.846Z,3.30
2019-05-15T06:42:59.317Z,3.70
2019-05-15T06:43:58.900Z,3.70
2019-05-15T06:44:58.905Z,2.10
2019-05-15T06:45:58.467Z,3.30
2019-05-15T06:46:58.784Z,3.20
2019-05-15T06:47:58.328Z,2.70
2019-05-15T06:48:58.095Z,3.00
2019-05-15T06:49:58.019Z,2.70
2019-05-15T06:50:58.040Z,2.40
2019-05-15T06:51:58.159Z,4.60
2019-05-15T06:52:58.748Z,2.70
2019-05-15T06:53:58.355Z,6.40
2019-05-15T06:54:59.222Z,2.40
2019-05-15T06:55:58.487Z,5.80
2019-05-15T06:56:58.338Z,4.30
2019-05-15T06:57:58.405Z,3.50
2019-05-15T06:58:58.183Z,3.80
2019-05-15T06:59:58.011Z,4.60
2019-05-15T07:00:59.267Z,3.40
2019-05-15T07:01:59.362Z,3.40
2019-05-15T07:02:58.292Z,2.30
2019-05-15T07:03:59.020Z,3.30
2019-05-15T07:04:58.357Z,6.40
2019-05-15T07:05:59.703Z,2.60
2019-05-15T07:06:58.325Z,2.80
2019-05-15T07:07:58.475Z,4.20
2019-05-15T07:08:58.591Z,3.00
2019-05-15T07:09:58.188Z,3.20
2019-05-15T07:10:57.952Z,1.70
2019-05-15T07:11:59.081Z,2.90
2019-05-15T07:12:58.477Z,2.60
2019-05-15T07:13:58.045Z,3.20
2019-05-15T07:14:58.229Z,2.90
2019-05-15T07:15:58.540Z,3.60
2019-05-15T07:16:59.177Z,2.70
2019-05-15T07:17:58.021Z,3.70
2019-05-15T07:18:58.880Z,2.40
2019-05-15T07:19:59.225Z,3.70
2019-05-15T07:20:58.093Z,4.10
2019-05-15T07:21:58.128Z,2.80
2019-05-15T07:22:58.596Z,3.70
2019-05-15T07:23:58.405Z,3.30
2019-05-15T07:24:58.248Z,3.50
2019-05-15T07:25:58.767Z,4.80
2019-05-15T07:26:59.130Z,3.90
2019-05-15T07:27:58.072Z,2.80
2019-05-15T07:28:59.351Z,1.90
2019-05-15T07:29:58.359Z,2.50
2019-05-15T07:30:58.332Z,2.90
2019-05-15T07:31:58.565Z,3.20
2019-05-15T07:32:58.575Z,4.20
2019-05-15T07:33:59.676Z,15.40
2019-05-15T07:34:57.904Z,2.40
2019-05-15T07:35:59.079Z,2.30
2019-05-15T07:36:59.191Z,4.60
2019-05-15T07:37:58.668Z,2.80
2019-05-15T07:38:57.990Z,2.30
2019-05-15T07:39:59.125Z,5.60
2019-05-15T07:41:01.136Z,12.30
2019-05-15T07:41:58.157Z,19.30
2019-05-15T07:42:58.530Z,4.40
2019-05-15T07:43:58.574Z,10.60
2019-05-15T07:44:58.879Z,3.90
2019-05-15T07:45:59.071Z,5.70
2019-05-15T07:46:58.358Z,5.20
2019-05-15T07:47:58.518Z,5.20
2019-05-15T07:48:58.324Z,3.50
2019-05-15T07:49:59.082Z,4.10
2019-05-15T07:50:58.996Z,3.40
2019-05-15T07:51:59.224Z,3.20
2019-05-15T07:52:59.022Z,2.40
2019-05-15T07:53:58.317Z,2.80
2019-05-15T07:54:58.273Z,4.20
2019-05-15T07:56:01.047Z,4.70
2019-05-15T07:56:58.201Z,3.80
2019-05-15T07:57:59.136Z,5.20
2019-05-15T07:58:58.592Z,2.60
2019-05-15T07:59:58.820Z,2.80
2019-05-15T08:00:59.016Z,2.70
2019-05-15T08:01:58.126Z,2.40
2019-05-15T08:02:58.632Z,3.80
2019-05-15T08:04:09.425Z,2.60
2019-05-15T08:04:57.889Z,4.00
2019-05-15T08:06:02.625Z,3.00
2019-05-15T08:06:59.107Z,2.20
2019-05-15T08:07:58.108Z,2.80
2019-05-15T08:08:59.040Z,2.70
2019-05-15T08:09:59.214Z,4.50
2019-05-15T08:10:57.944Z,2.80
2019-05-15T08:11:59.265Z,2.00
2019-05-15T08:12:58.135Z,1.90
2019-05-15T08:13:58.226Z,3.40
2019-05-15T08:14:58.238Z,2.10
2019-05-15T08:15:57.976Z,3.40
2019-05-15T08:16:59.026Z,1.90
2019-05-15T08:18:05.549Z,2.20
2019-05-15T08:18:57.933Z,1.80
2019-05-15T08:19:58.228Z,2.70
2019-05-15T08:20:58.604Z,2.00
2019-05-15T08:21:58.193Z,2.40
2019-05-15T08:22:58.259Z,2.00
2019-05-15T08:23:58.890Z,2.90
2019-05-15T08:24:58.965Z,3.40
2019-05-15T08:25:57.863Z,2.80
2019-05-15T08:26:58.129Z,3.00
2019-05-15T08:27:58.637Z,2.60
2019-05-15T08:28:57.921Z,3.10
2019-05-15T08:29:58.131Z,3.00
2019-05-15T08:30:58.370Z,2.40
2019-05-15T08:31:58.749Z,5.10
2019-05-15T08:32:58.754Z,3.40
2019-05-15T08:34:12.030Z,2.10
2019-05-15T08:34:58.667Z,2.30
2019-05-15T08:35:58.726Z,2.80
2019-05-15T08:36:58.751Z,3.70
2019-05-15T08:37:58.105Z,4.20
2019-05-15T08:38:59.065Z,2.20
2019-05-15T08:39:59.415Z,2.10
2019-05-15T08:40:57.006Z,3.60
2019-05-15T08:41:58.418Z,2.00
2019-05-15T08:43:01.904Z,3.10
2019-05-15T08:43:57.948Z,2.80
2019-05-15T08:44:58.346Z,2.40
2019-05-15T08:45:58.670Z,2.80
2019-05-15T08:46:58.759Z,2.80
2019-05-15T08:47:58.614Z,2.40
2019-05-15T08:48:58.334Z,2.90
2019-05-15T08:49:57.963Z,2.50
2019-05-15T08:50:57.941Z,3.50
2019-05-15T08:51:58.388Z,2.00
2019-05-15T08:52:57.941Z,3.00
2019-05-15T08:53:57.954Z,2.30
2019-05-15T08:54:58.853Z,2.60
2019-05-15T08:55:58.616Z,2.00
2019-05-15T08:56:58.987Z,2.70
2019-05-15T08:58:05.727Z,2.10
2019-05-15T08:58:58.019Z,2.50
2019-05-15T08:59:58.321Z,2.80
2019-05-15T09:00:58.569Z,4.10
2019-05-15T09:01:58.198Z,1.70
2019-05-15T09:02:58.173Z,2.40
2019-05-15T09:03:58.176Z,2.80
2019-05-15T09:04:58.059Z,2.40
2019-05-15T09:05:58.779Z,2.60
2019-05-15T09:07:01.032Z,1.90
2019-05-15T09:07:58.076Z,3.50
2019-05-15T09:08:58.495Z,3.70
2019-05-15T09:09:58.040Z,3.90
2019-05-15T09:10:58.593Z,1.90
2019-05-15T09:11:58.368Z,3.50
2019-05-15T09:12:58.504Z,3.40
2019-05-15T09:13:59.298Z,3.40
2019-05-15T09:14:58.098Z,2.40
2019-05-15T09:15:58.701Z,2.60
2019-05-15T09:16:58.291Z,1.70
2019-05-15T09:18:11.295Z,3.60
2019-05-15T09:18:59.147Z,2.60
2019-05-15T09:19:58.662Z,2.20
2019-05-15T09:20:56.100Z,4.80
2019-05-15T09:21:58.289Z,3.10
2019-05-15T09:22:58.262Z,2.10
2019-05-15T09:23:58.711Z,2.70
2019-05-15T09:24:56.054Z,2.50
2019-05-15T09:25:57.851Z,3.60
2019-05-15T09:26:56.035Z,2.20
2019-05-15T09:27:57.928Z,2.80
2019-05-15T09:28:58.328Z,2.90
2019-05-15T09:29:56.004Z,1.80
2019-05-15T09:30:55.995Z,2.20
2019-05-15T09:31:55.987Z,8.40
2019-05-15T09:32:56.002Z,2.60
2019-05-15T09:33:58.391Z,2.20
2019-05-15T09:34:55.953Z,5.10
2019-05-15T09:35:58.158Z,2.30
2019-05-15T09:36:55.933Z,3.30
2019-05-15T09:37:58.178Z,2.60
2019-05-15T09:38:58.348Z,2.60
2019-05-15T09:39:58.244Z,3.30
2019-05-15T09:40:58.291Z,2.20
2019-05-15T09:41:57.784Z,1.80
2019-05-15T09:42:57.792Z,5.70
2019-05-15T09:43:57.918Z,2.50
2019-05-15T09:44:58.042Z,2.10
2019-05-15T09:45:58.098Z,2.20
2019-05-15T09:46:58.272Z,4.70
2019-05-15T09:47:55.857Z,4.10
2019-05-15T09:48:55.808Z,1.90
2019-05-15T09:49:55.800Z,1.80
2019-05-15T09:50:55.792Z,3.00
2019-05-15T09:51:58.418Z,2.30
2019-05-15T09:52:55.802Z,1.10
2019-05-15T09:53:55.760Z,3.00
2019-05-15T09:54:55.754Z,1.50
2019-05-15T09:55:55.739Z,5.90
2019-05-15T09:56:58.388Z,1.80
2019-05-15T09:57:55.723Z,2.20
2019-05-15T09:58:58.011Z,3.00
2019-05-15T09:59:58.545Z,2.60
2019-05-15T10:00:55.690Z,1.70
2019-05-15T10:01:55.679Z,2.20
2019-05-15T10:02:55.671Z,3.30
2019-05-15T10:03:55.690Z,2.20
2019-05-15T10:05:06.052Z,4.40
2019-05-15T10:05:56.646Z,3.00
2019-05-15T10:06:55.630Z,2.60
2019-05-15T10:07:55.629Z,4.60
2019-05-15T10:08:55.636Z,2.30
2019-05-15T10:09:55.596Z,2.50
2019-05-15T10:10:55.588Z,2.80
2019-05-15T10:11:55.581Z,2.00
2019-05-15T10:12:55.579Z,2.20
2019-05-15T10:13:55.594Z,2.90
2019-05-15T10:14:55.548Z,1.50
2019-05-15T10:15:55.537Z,3.90
2019-05-15T10:16:58.217Z,3.20
2019-05-15T10:17:55.519Z,2.70
2019-05-15T10:18:58.020Z,3.90
2019-05-15T10:19:58.131Z,1.50
2019-05-15T10:20:57.599Z,1.60
2019-05-15T10:21:55.492Z,4.20
2019-05-15T10:22:55.474Z,4.60
2019-05-15T10:23:58.792Z,1.80
2019-05-15T10:24:55.453Z,4.60
2019-05-15T10:25:55.437Z,4.80
2019-05-15T10:26:57.927Z,1.60
2019-05-15T10:27:57.843Z,1.80
2019-05-15T10:28:58.262Z,3.80
2019-05-15T10:29:55.394Z,2.20
2019-05-15T10:30:55.393Z,1.70
2019-05-15T10:31:55.375Z,2.80
2019-05-15T10:32:55.373Z,1.80
2019-05-15T10:33:55.383Z,3.40
2019-05-15T10:34:55.353Z,2.80
2019-05-15T10:35:55.341Z,4.50
2019-05-15T10:36:55.334Z,2.00
2019-05-15T10:37:55.323Z,2.20
2019-05-15T10:38:55.389Z,4.70
2019-05-15T10:39:55.299Z,1.80
2019-05-15T10:41:08.133Z,7.70
2019-05-15T10:41:56.282Z,3.20
2019-05-15T10:42:55.276Z,3.30
2019-05-15T10:43:56.684Z,2.90
2019-05-15T10:44:55.253Z,3.30
2019-05-15T10:45:55.251Z,3.60
2019-05-15T10:46:55.234Z,2.30
2019-05-15T10:47:55.230Z,2.40
2019-05-15T10:48:55.239Z,3.30
2019-05-15T10:49:55.204Z,2.60
2019-05-15T10:50:58.542Z,3.00
2019-05-15T10:51:56.183Z,3.80
2019-05-15T10:52:55.175Z,2.80
2019-05-15T10:53:55.195Z,5.20
2019-05-15T10:54:55.159Z,3.30
2019-05-15T10:55:55.159Z,5.80
2019-05-15T10:56:55.149Z,1.90
2019-05-15T10:57:55.159Z,3.00
2019-05-15T10:58:55.146Z,2.00
2019-05-15T10:59:55.121Z,2.50
2019-05-15T11:00:55.108Z,2.10
2019-05-15T11:01:55.086Z,3.30
2019-05-15T11:02:55.083Z,3.20
2019-05-15T11:03:55.095Z,1.70
2019-05-15T11:04:55.060Z,3.70
2019-05-15T11:05:55.101Z,1.60
2019-05-15T11:06:55.041Z,4.70
2019-05-15T11:07:55.031Z,3.20
2019-05-15T11:08:55.044Z,2.60
2019-05-15T11:09:55.025Z,1.70
2019-05-15T11:10:54.999Z,2.80
2019-05-15T11:11:54.994Z,1.90
2019-05-15T11:12:54.983Z,2.60
2019-05-15T11:13:55.002Z,2.10
2019-05-15T11:14:54.965Z,1.90
2019-05-15T11:15:54.955Z,2.30
2019-05-15T11:16:54.945Z,2.00
2019-05-15T11:17:54.938Z,1.80
2019-05-15T11:18:54.953Z,2.40
2019-05-15T11:19:54.919Z,2.70
2019-05-15T11:20:54.904Z,2.90
2019-05-15T11:21:54.891Z,2.10
2019-05-15T11:22:54.884Z,3.20
2019-05-15T11:23:54.904Z,1.60
2019-05-15T11:24:54.863Z,2.00
2019-05-15T11:25:54.863Z,2.80
2019-05-15T11:26:56.262Z,2.30
2019-05-15T11:27:54.838Z,3.50
2019-05-15T11:28:54.850Z,3.20
2019-05-15T11:29:54.819Z,3.00
2019-05-15T11:30:54.802Z,2.10
2019-05-15T11:31:54.795Z,3.00
2019-05-15T11:32:54.783Z,1.90
2019-05-15T11:33:54.803Z,2.20
2019-05-15T11:34:54.762Z,3.00
2019-05-15T11:36:02.062Z,1.30
2019-05-15T11:36:55.743Z,2.70
2019-05-15T11:37:56.892Z,2.00
2019-05-15T11:38:54.751Z,3.50
2019-05-15T11:39:54.713Z,2.60
2019-05-15T11:40:54.703Z,2.40
2019-05-15T11:41:54.691Z,2.00
2019-05-15T11:42:54.683Z,2.80
2019-05-15T11:43:54.776Z,1.70
2019-05-15T11:44:54.664Z,3.20
2019-05-15T11:45:54.655Z,2.20
2019-05-15T11:46:54.645Z,1.70
2019-05-15T11:47:54.633Z,2.50
2019-05-15T11:48:54.662Z,3.20
2019-05-15T11:49:54.616Z,3.50
2019-05-15T11:50:54.613Z,1.50
2019-05-15T11:51:54.595Z,2.30
2019-05-15T11:52:54.592Z,1.80
2019-05-15T11:53:54.606Z,2.70
2019-05-15T11:54:54.598Z,3.30
2019-05-15T11:55:54.558Z,1.90
2019-05-15T11:56:54.546Z,2.20
2019-05-15T11:57:55.759Z,2.80
2019-05-15T11:58:54.526Z,3.00
2019-05-15T11:59:55.485Z,1.90
2019-05-15T12:00:54.510Z,3.70
2019-05-15T12:01:54.499Z,4.90
2019-05-15T12:02:54.496Z,3.80
2019-05-15T12:03:54.482Z,1.70
2019-05-15T12:04:54.507Z,3.00
2019-05-15T12:05:54.460Z,1.70
2019-05-15T12:06:59.741Z,1.70
2019-05-15T12:07:57.774Z,2.30
2019-05-15T12:08:54.431Z,4.70
2019-05-15T12:09:54.449Z,3.00
2019-05-15T12:10:54.412Z,4.50
2019-05-15T12:11:54.402Z,3.40
2019-05-15T12:12:54.391Z,1.50
2019-05-15T12:13:54.379Z,2.00
2019-05-15T12:14:54.406Z,2.60
2019-05-15T12:15:54.359Z,1.40
2019-05-15T12:17:10.155Z,1.90
2019-05-15T12:17:55.338Z,2.10
2019-05-15T12:18:54.334Z,4.70
2019-05-15T12:19:55.897Z,2.60
2019-05-15T12:20:55.312Z,3.70
2019-05-15T12:21:54.304Z,3.30
2019-05-15T12:22:54.303Z,3.60
2019-05-15T12:23:54.282Z,3.10
2019-05-15T12:24:54.299Z,3.30
2019-05-15T12:25:54.261Z,5.00
2019-05-15T12:26:54.254Z,2.30
2019-05-15T12:27:54.242Z,4.30
2019-05-15T12:28:54.231Z,2.80
2019-05-15T12:29:54.251Z,2.90
2019-05-15T12:30:54.211Z,2.90
2019-05-15T12:31:54.206Z,2.30
2019-05-15T12:32:54.194Z,3.00
2019-05-15T12:33:54.184Z,4.10
2019-05-15T12:34:54.206Z,2.60
2019-05-15T12:35:54.165Z,2.50
2019-05-15T12:36:57.977Z,3.10
2019-05-15T12:37:54.146Z,2.70
2019-05-15T12:38:54.135Z,4.20
2019-05-15T12:59:54.954Z,3.60
2019-05-15T13:00:53.921Z,4.80
2019-05-15T13:01:53.903Z,3.40
2019-05-15T13:02:53.910Z,3.80
2019-05-15T13:03:53.883Z,3.20
2019-05-15T13:04:53.904Z,2.90
2019-05-15T13:05:53.873Z,3.20
2019-05-15T13:07:11.598Z,3.30
2019-05-15T13:07:54.843Z,2.70
2019-05-15T13:08:53.842Z,2.00
2019-05-15T13:09:53.859Z,3.30
2019-05-15T13:10:53.816Z,3.40
2019-05-15T13:11:53.807Z,2.20
2019-05-15T13:13:00.921Z,3.00
2019-05-15T13:13:54.790Z,2.60
2019-05-15T13:14:53.803Z,2.50
2019-05-15T13:15:53.763Z,2.50
2019-05-15T13:16:53.757Z,2.60
2019-05-15T13:17:54.112Z,3.50
2019-05-15T13:18:53.734Z,2.90
2019-05-15T13:19:53.751Z,3.80
2019-05-15T13:20:56.121Z,4.40
2019-05-15T13:21:53.732Z,3.30
2019-05-15T13:22:53.698Z,4.40
2019-05-15T13:23:53.686Z,3.70
2019-05-15T13:24:53.698Z,2.60
2019-05-15T13:25:53.673Z,4.70
2019-05-15T13:26:53.652Z,3.30
2019-05-15T13:27:53.646Z,5.00
2019-05-15T13:28:53.634Z,3.50
2019-05-15T13:29:53.674Z,3.40
2019-05-15T13:30:53.615Z,3.50
2019-05-15T13:31:53.603Z,4.80
2019-05-15T13:32:53.595Z,2.40
2019-05-15T13:33:53.579Z,2.80
2019-05-15T13:34:53.574Z,2.60
2019-05-15T13:35:53.589Z,3.80
2019-05-15T13:36:53.563Z,4.00